Time;durP1;ratioP1;P1;durP2;ratioP2;P2;SDS_P1;SDS_P2;PMS_P1;PMS_P2;Temp;Humidity;BMP_temperature;BMP_pressure;BME280_temperature;BME280_humidity;BME280_pressure;Samples;Min_cycle;Max_cycle;Signal;HPM_P1;HPM_P2
2022/01/11 00:01:29;;;;;;;24.75;8.13;;;1.30;99.90;;;;;;6281728;22;20453;-74
2022/01/11 00:03:56;;;;;;;33.22;8.70;;;1.40;99.90;;;;;;6309293;22;20011;-74
2022/01/11 00:08:59;;;;;;;27.63;6.50;;;1.40;99.90;;;;;;6319734;22;20007;-74
2022/01/11 00:11:25;;;;;;;32.47;6.88;;;1.40;99.90;;;;;;6308847;22;20003;-75
2022/01/11 00:13:51;;;;;;;34.00;8.10;;;1.30;99.90;;;;;;6281378;22;20077;-74
2022/01/11 00:16:17;;;;;;;28.40;7.60;;;1.30;99.90;;;;;;6309161;22;20062;-75
2022/01/11 00:18:43;;;;;;;23.98;7.60;;;1.30;99.90;;;;;;6308831;22;20038;-74
2022/01/11 00:21:09;;;;;;;25.95;7.80;;;1.30;99.90;;;;;;6308316;22;20030;-74
2022/01/11 00:26:00;;;;;;;27.25;8.15;;;1.30;99.90;;;;;;6309508;22;20003;-74
2022/01/11 00:28:27;;;;;;;35.25;8.82;;;1.30;99.90;;;;;;6281432;22;20548;-74
2022/01/11 00:30:53;;;;;;;27.83;7.97;;;1.30;99.90;;;;;;6281439;22;20010;-74
2022/01/11 00:33:29;;;;;;;23.38;7.13;;;1.30;99.90;;;;;;6308837;22;20000;-74
2022/01/11 00:36:00;;;;;;;25.73;7.90;;;1.20;99.90;;;;;;6281206;22;19999;-74
2022/01/11 00:38:31;;;;;;;29.85;8.65;;;1.20;99.90;;;;;;6308757;22;20015;-74
2022/01/11 00:41:00;;;;;;;26.05;7.43;;;1.20;99.90;;;;;;6281089;22;19999;-74
2022/01/11 00:43:27;;;;;;;35.55;8.70;;;1.20;99.90;;;;;;6282195;22;19999;-74
2022/01/11 00:45:54;;;;;;;29.52;7.78;;;1.20;99.90;;;;;;6308522;22;19999;-74
2022/01/11 00:48:20;;;;;;;30.95;8.93;;;1.20;99.90;;;;;;6308597;22;20495;-73
2022/01/11 00:50:51;;;;;;;33.80;9.07;;;1.20;99.90;;;;;;6308854;22;20074;-73
2022/01/11 00:53:18;;;;;;;28.20;8.85;;;1.20;99.90;;;;;;6281199;22;20084;-72
2022/01/11 00:55:45;;;;;;;28.75;8.23;;;1.20;99.90;;;;;;6281257;22;20381;-72
2022/01/11 00:58:10;;;;;;;26.55;8.25;;;1.20;99.90;;;;;;6308176;22;20007;-72
2022/01/11 01:00:38;;;;;;;30.80;8.20;;;1.20;99.90;;;;;;6308566;22;20113;-72
2022/01/11 01:03:04;;;;;;;30.52;9.00;;;1.30;99.90;;;;;;6308524;22;20364;-73
2022/01/11 01:05:30;;;;;;;29.50;8.10;;;1.20;99.90;;;;;;6280978;22;20230;-72
2022/01/11 01:07:56;;;;;;;29.52;8.32;;;1.30;99.90;;;;;;6281125;22;20423;-72
2022/01/11 01:10:35;;;;;;;31.88;9.73;;;1.20;99.90;;;;;;6308104;22;20004;-72
2022/01/11 01:13:04;;;;;;;33.92;10.23;;;1.20;99.90;;;;;;6308587;22;20031;-72
2022/01/11 01:15:34;;;;;;;33.78;8.45;;;1.20;99.90;;;;;;6281156;22;20461;-72
2022/01/11 01:18:04;;;;;;;35.10;8.65;;;1.20;99.90;;;;;;6280894;22;20427;-72
2022/01/11 01:20:30;;;;;;;32.90;10.63;;;1.10;99.90;;;;;;6280873;22;20072;-72
2022/01/11 01:22:56;;;;;;;32.70;10.45;;;1.10;99.90;;;;;;6280885;22;20403;-72
2022/01/11 01:25:23;;;;;;;31.55;9.30;;;1.10;99.90;;;;;;6308247;22;19999;-73
2022/01/11 01:27:50;;;;;;;36.30;10.48;;;1.10;99.90;;;;;;6308343;22;19999;-73
2022/01/11 01:30:17;;;;;;;34.60;9.70;;;1.20;99.90;;;;;;6280612;22;20457;-72
2022/01/11 01:32:44;;;;;;;35.28;9.98;;;1.20;99.90;;;;;;6308368;22;20004;-72
2022/01/11 01:35:11;;;;;;;34.58;9.25;;;1.20;99.90;;;;;;6308178;22;20003;-72
2022/01/11 01:37:36;;;;;;;29.92;9.32;;;1.20;99.90;;;;;;6308240;22;20418;-72
2022/01/11 01:40:04;;;;;;;34.47;9.23;;;1.20;99.90;;;;;;6280531;22;19999;-72
2022/01/11 01:42:31;;;;;;;37.42;10.55;;;1.30;99.90;;;;;;6307817;22;20048;-72
2022/01/11 01:44:59;;;;;;;30.30;9.52;;;1.20;99.90;;;;;;6307982;22;19999;-72
2022/01/11 01:47:26;;;;;;;32.33;8.57;;;1.30;99.90;;;;;;6281442;22;20006;-72
2022/01/11 01:49:51;;;;;;;33.00;9.45;;;1.30;99.90;;;;;;6308278;22;20427;-72
2022/01/11 01:52:17;;;;;;;31.70;9.73;;;1.30;99.90;;;;;;6308134;22;20074;-72
2022/01/11 01:54:43;;;;;;;37.58;9.63;;;1.30;99.90;;;;;;6280796;22;19996;-72
2022/01/11 01:57:09;;;;;;;26.77;8.65;;;1.30;99.90;;;;;;6308011;22;20045;-72
2022/01/11 01:59:35;;;;;;;29.50;9.32;;;1.30;99.90;;;;;;6307716;22;20316;-72
2022/01/11 02:02:01;;;;;;;27.38;9.00;;;1.30;99.90;;;;;;6308195;22;20010;-72
2022/01/11 02:04:27;;;;;;;30.83;8.25;;;1.30;99.90;;;;;;6307876;22;20000;-72
2022/01/11 02:06:53;;;;;;;26.95;8.43;;;1.30;99.90;;;;;;6307917;22;19999;-72
2022/01/11 02:09:19;;;;;;;32.33;9.20;;;1.30;99.90;;;;;;6307549;22;19999;-72
2022/01/11 02:11:47;;;;;;;34.72;9.82;;;1.30;99.90;;;;;;6307929;22;20009;-72
2022/01/11 02:14:13;;;;;;;37.67;10.33;;;1.30;99.90;;;;;;6308413;22;20007;-73
2022/01/11 02:16:38;;;;;;;33.58;9.63;;;1.30;99.90;;;;;;6308097;22;20026;-73
2022/01/11 02:19:05;;;;;;;33.40;9.77;;;1.30;99.90;;;;;;6280170;22;20004;-72
2022/01/11 02:21:30;;;;;;;35.95;10.90;;;1.30;99.90;;;;;;6307736;22;20053;-72
2022/01/11 02:23:59;;;;;;;31.73;9.40;;;1.30;99.90;;;;;;6280413;22;20005;-72
2022/01/11 02:26:25;;;;;;;27.20;8.43;;;1.30;99.90;;;;;;6307660;22;19999;-72
2022/01/11 02:28:52;;;;;;;31.45;8.02;;;1.30;99.90;;;;;;6280487;22;20103;-72
2022/01/11 02:31:21;;;;;;;29.20;9.70;;;1.30;99.90;;;;;;6307966;22;20053;-72
2022/01/11 02:33:52;;;;;;;31.90;9.02;;;1.30;99.90;;;;;;6307934;22;20010;-72
2022/01/11 02:36:20;;;;;;;30.60;9.85;;;1.20;99.90;;;;;;6308317;22;19999;-72
2022/01/11 02:38:48;;;;;;;30.25;8.45;;;1.20;99.90;;;;;;6307674;22;19999;-72
2022/01/11 02:41:13;;;;;;;26.20;7.63;;;1.20;99.90;;;;;;6307534;22;19999;-72
2022/01/11 02:43:46;;;;;;;27.05;7.93;;;1.20;99.90;;;;;;6308123;22;20010;-73
2022/01/11 02:46:12;;;;;;;31.50;7.38;;;1.20;99.90;;;;;;6309159;22;19995;-73
2022/01/11 02:48:37;;;;;;;24.88;7.80;;;1.20;99.90;;;;;;6309851;22;20009;-73
2022/01/11 02:51:04;;;;;;;31.88;7.88;;;1.20;99.90;;;;;;6310001;22;20428;-73
2022/01/11 02:53:30;;;;;;;29.00;8.50;;;1.10;99.90;;;;;;6309599;22;20423;-73
2022/01/11 02:55:57;;;;;;;27.35;8.68;;;1.10;99.90;;;;;;6309681;22;20014;-73
2022/01/11 02:58:22;;;;;;;31.92;8.95;;;1.20;99.90;;;;;;6281991;22;20007;-73
2022/01/11 03:00:48;;;;;;;25.27;7.47;;;1.10;99.90;;;;;;6309686;22;20022;-73
2022/01/11 03:03:23;;;;;;;26.15;8.05;;;1.20;99.90;;;;;;6281937;22;19999;-73
2022/01/11 03:06:00;;;;;;;27.65;8.00;;;1.10;99.90;;;;;;6310261;22;20023;-73
2022/01/11 03:08:29;;;;;;;30.15;8.25;;;1.10;99.90;;;;;;6310007;22;20027;-73
2022/01/11 03:10:55;;;;;;;25.77;7.15;;;1.10;99.90;;;;;;6309639;22;20057;-73
2022/01/11 03:13:21;;;;;;;30.65;9.57;;;1.10;99.90;;;;;;6309791;22;20007;-73
2022/01/11 03:15:48;;;;;;;31.88;9.30;;;1.10;99.90;;;;;;6309454;22;20060;-73
2022/01/11 03:18:15;;;;;;;28.45;7.82;;;1.10;99.90;;;;;;6281916;22;20010;-73
2022/01/11 03:20:42;;;;;;;23.15;7.60;;;1.10;99.90;;;;;;6309499;22;20003;-73
2022/01/11 03:23:08;;;;;;;28.02;8.32;;;1.10;99.90;;;;;;6309540;22;20006;-73
2022/01/11 03:25:35;;;;;;;31.52;9.30;;;1.10;99.90;;;;;;6309455;22;19995;-73
2022/01/11 03:28:02;;;;;;;29.75;8.88;;;1.00;99.90;;;;;;6309266;22;20112;-73
2022/01/11 03:30:27;;;;;;;30.90;9.40;;;1.00;99.90;;;;;;6308980;22;20010;-73
2022/01/11 03:32:53;;;;;;;27.67;7.78;;;1.00;99.90;;;;;;6309329;22;20003;-73
2022/01/11 03:35:23;;;;;;;29.00;8.85;;;1.10;99.90;;;;;;6309251;22;20125;-74
2022/01/11 03:37:49;;;;;;;26.85;8.38;;;1.00;99.90;;;;;;6281713;22;20077;-74
2022/01/11 03:40:18;;;;;;;33.17;9.00;;;1.10;99.90;;;;;;6281820;22;20003;-74
2022/01/11 03:42:44;;;;;;;;;;;1.10;99.90;;;;;;6310030;22;20106;-74
2022/01/11 03:45:12;;;;;;;31.23;7.55;;;1.10;99.90;;;;;;6309372;22;19903;-74
2022/01/11 03:47:38;;;;;;;29.65;8.95;;;1.10;99.90;;;;;;6281816;22;20002;-74
2022/01/11 03:50:08;;;;;;;31.08;8.82;;;1.10;99.90;;;;;;6309178;22;19995;-74
2022/01/11 03:52:35;;;;;;;33.88;9.68;;;1.10;99.90;;;;;;6308919;22;20000;-74
2022/01/11 03:55:05;;;;;;;32.35;9.10;;;1.00;99.90;;;;;;6309443;22;19999;-74
2022/01/11 03:57:32;;;;;;;29.00;8.77;;;1.00;99.90;;;;;;6309108;22;20003;-74
2022/01/11 04:00:07;;;;;;;36.80;10.07;;;1.00;99.90;;;;;;6282619;22;20004;-74
2022/01/11 04:02:32;;;;;;;31.17;9.60;;;1.00;99.90;;;;;;6309052;22;20003;-74
2022/01/11 04:04:58;;;;;;;34.13;9.70;;;1.10;99.90;;;;;;6308792;22;20441;-74
2022/01/11 04:07:26;;;;;;;33.00;8.93;;;1.10;99.90;;;;;;6308837;22;20053;-74
2022/01/11 04:09:54;;;;;;;34.40;10.02;;;1.10;99.90;;;;;;6281764;22;19995;-74
2022/01/11 04:12:20;;;;;;;29.35;8.55;;;1.10;99.90;;;;;;6309620;22;20002;-74
2022/01/11 04:14:46;;;;;;;37.38;10.70;;;1.10;99.90;;;;;;6308898;22;19999;-74
2022/01/11 04:17:12;;;;;;;29.98;8.65;;;1.20;99.90;;;;;;6309528;22;20429;-74
2022/01/11 04:19:38;;;;;;;33.65;9.18;;;1.20;99.90;;;;;;6308991;22;20007;-73
2022/01/11 04:22:04;;;;;;;35.15;10.18;;;1.10;99.90;;;;;;6308811;22;20480;-74
2022/01/11 04:24:30;;;;;;;35.17;9.25;;;1.10;99.90;;;;;;6281365;22;20003;-74
2022/01/11 04:26:55;;;;;;;33.00;8.18;;;1.10;99.90;;;;;;6308714;22;19996;-74
2022/01/11 04:29:21;;;;;;;39.70;10.18;;;1.10;99.90;;;;;;6281468;22;19999;-73
2022/01/11 04:31:47;;;;;;;38.80;11.02;;;1.10;99.90;;;;;;6281191;22;20031;-74
2022/01/11 04:34:12;;;;;;;43.28;10.48;;;1.10;99.90;;;;;;6308535;22;20003;-74
2022/01/11 04:36:38;;;;;;;43.75;10.45;;;1.10;99.90;;;;;;6281199;22;20422;-74
2022/01/11 04:39:06;;;;;;;36.20;10.25;;;1.10;99.90;;;;;;6308834;22;20040;-74
2022/01/11 04:41:32;;;;;;;42.95;10.68;;;1.20;99.90;;;;;;6281136;22;20006;-74
2022/01/11 04:43:57;;;;;;;35.85;10.00;;;1.10;99.90;;;;;;6281226;22;20343;-73
2022/01/11 04:46:23;;;;;;;41.40;11.38;;;1.10;99.90;;;;;;6308766;22;20000;-74
2022/01/11 04:48:49;;;;;;;47.00;12.48;;;1.10;99.90;;;;;;6308336;22;20078;-73
2022/01/11 04:51:15;;;;;;;41.53;10.85;;;1.10;99.90;;;;;;6308413;22;20003;-73
2022/01/11 04:53:41;;;;;;;51.53;11.88;;;1.10;99.90;;;;;;6281069;22;20003;-74
2022/01/11 04:56:07;;;;;;;47.33;11.82;;;1.10;99.90;;;;;;6308713;22;20436;-74
2022/01/11 04:58:33;;;;;;;37.28;11.40;;;1.20;99.90;;;;;;6308258;22;20003;-74
2022/01/11 05:00:59;;;;;;;47.03;11.60;;;1.20;99.90;;;;;;6307974;22;20002;-74
2022/01/11 05:03:24;;;;;;;42.50;11.98;;;1.20;99.90;;;;;;6281011;22;19996;-74
2022/01/11 05:05:50;;;;;;;43.00;11.45;;;1.20;99.90;;;;;;6309032;22;20304;-74
2022/01/11 05:08:16;;;;;;;40.92;11.88;;;1.20;99.90;;;;;;6280522;22;20003;-74
2022/01/11 05:10:44;;;;;;;40.85;11.23;;;1.20;99.90;;;;;;6280698;22;20373;-74
2022/01/11 05:13:14;;;;;;;32.40;8.38;;;1.20;99.90;;;;;;6280987;22;20031;-74
2022/01/11 05:15:40;;;;;;;38.38;10.88;;;1.30;99.90;;;;;;6310021;22;20458;-74
2022/01/11 05:18:07;;;;;;;38.17;11.20;;;1.30;99.90;;;;;;6309218;22;20007;-74
2022/01/11 05:20:33;;;;;;;35.20;11.15;;;1.20;99.90;;;;;;6280954;22;20000;-74
2022/01/11 05:22:59;;;;;;;48.78;13.02;;;1.20;99.90;;;;;;6281035;22;20027;-74
2022/01/11 05:25:24;;;;;;;47.05;13.18;;;1.20;99.90;;;;;;6308661;22;20065;-74
2022/01/11 05:27:51;;;;;;;49.53;10.65;;;1.30;99.90;;;;;;6308475;22;20044;-74
2022/01/11 05:30:17;;;;;;;45.45;12.38;;;1.30;99.90;;;;;;6308273;22;20035;-74
2022/01/11 05:32:42;;;;;;;42.05;11.40;;;1.20;99.90;;;;;;6308247;22;20431;-74
2022/01/11 05:35:11;;;;;;;40.67;11.35;;;1.20;99.90;;;;;;6280924;22;19999;-74
2022/01/11 05:37:37;;;;;;;37.65;10.23;;;1.30;99.90;;;;;;6308227;22;20082;-74
2022/01/11 05:40:05;;;;;;;39.15;11.52;;;1.30;99.90;;;;;;6280972;22;20440;-74
2022/01/11 05:42:30;;;;;;;36.55;11.10;;;1.20;99.90;;;;;;6308176;22;20410;-74
2022/01/11 05:44:56;;;;;;;42.30;11.15;;;1.20;99.90;;;;;;6308314;22;20034;-74
2022/01/11 05:47:22;;;;;;;40.20;12.00;;;1.20;99.90;;;;;;6308125;22;20021;-73
2022/01/11 05:49:48;;;;;;;48.42;11.55;;;1.20;99.90;;;;;;6307907;22;19995;-74
2022/01/11 05:52:13;;;;;;;37.88;11.02;;;1.10;99.90;;;;;;6308640;22;20411;-73
2022/01/11 05:54:39;;;;;;;39.13;11.75;;;1.10;99.90;;;;;;6280592;22;20003;-74
2022/01/11 05:57:04;;;;;;;32.95;10.13;;;1.10;99.90;;;;;;6280652;22;20009;-74
2022/01/11 05:59:30;;;;;;;39.22;11.63;;;1.10;99.90;;;;;;6307577;22;20082;-74
2022/01/11 06:01:56;;;;;;;37.78;11.20;;;1.10;99.90;;;;;;6307797;22;20022;-73
2022/01/11 06:04:23;;;;;;;39.42;11.00;;;1.20;99.90;;;;;;6308163;22;19999;-74
2022/01/11 06:06:49;;;;;;;38.05;9.50;;;1.20;99.90;;;;;;6280481;22;20476;-74
2022/01/11 06:09:14;;;;;;;44.78;11.55;;;1.10;99.90;;;;;;6280346;22;20090;-74
2022/01/11 06:11:40;;;;;;;52.65;12.82;;;1.10;99.90;;;;;;6280503;22;20009;-73
2022/01/11 06:14:05;;;;;;;51.35;12.75;;;1.10;99.90;;;;;;6307654;22;19999;-74
2022/01/11 06:16:31;;;;;;;43.15;11.88;;;1.10;99.90;;;;;;6308024;22;20370;-74
2022/01/11 06:18:57;;;;;;;45.90;12.43;;;1.10;99.90;;;;;;6307407;22;20049;-74
2022/01/11 06:21:23;;;;;;;44.83;12.70;;;1.10;99.90;;;;;;6279944;22;19995;-73
2022/01/11 06:23:48;;;;;;;46.53;12.13;;;1.10;99.90;;;;;;6308434;22;20422;-73
2022/01/11 06:26:15;;;;;;;47.33;12.73;;;1.10;99.90;;;;;;6280404;22;20492;-73
2022/01/11 06:28:40;;;;;;;43.30;12.43;;;1.10;99.90;;;;;;6308043;22;20334;-73
2022/01/11 06:31:07;;;;;;;43.08;11.80;;;1.10;99.90;;;;;;6308206;22;20003;-73
2022/01/11 06:33:33;;;;;;;40.35;11.52;;;1.10;99.90;;;;;;6281904;22;20011;-73
2022/01/11 06:35:58;;;;;;;42.38;11.75;;;1.10;99.90;;;;;;6280314;22;20026;-73
2022/01/11 06:38:24;;;;;;;41.03;11.60;;;1.10;99.90;;;;;;6308216;22;19999;-73
2022/01/11 06:40:49;;;;;;;45.03;11.82;;;1.10;99.90;;;;;;6307901;22;20045;-73
2022/01/11 06:43:15;;;;;;;37.80;11.75;;;1.10;99.90;;;;;;6307609;22;20517;-73
2022/01/11 06:45:40;;;;;;;41.05;11.98;;;1.10;99.90;;;;;;6307505;22;20000;-73
2022/01/11 06:48:08;;;;;;;40.05;11.50;;;1.10;99.90;;;;;;6307587;22;20426;-74
2022/01/11 06:50:34;;;;;;;40.67;11.10;;;1.00;99.90;;;;;;6308366;22;20005;-75
2022/01/11 06:52:59;;;;;;;41.85;10.82;;;1.10;99.90;;;;;;6307977;22;20033;-76
2022/01/11 06:55:25;;;;;;;41.80;10.68;;;1.10;99.90;;;;;;6308405;22;19999;-76
2022/01/11 06:57:51;;;;;;;44.67;12.70;;;1.10;99.90;;;;;;6280078;22;20004;-76
2022/01/11 07:00:17;;;;;;;38.72;11.02;;;1.10;99.90;;;;;;6307665;22;20000;-76
2022/01/11 07:02:46;;;;;;;39.90;11.63;;;1.00;99.90;;;;;;6280344;22;19995;-76
2022/01/11 07:05:13;;;;;;;31.90;9.70;;;1.00;99.90;;;;;;6280198;22;19999;-77
2022/01/11 07:07:39;;;;;;;37.33;10.88;;;1.10;99.90;;;;;;6307654;22;19999;-77
2022/01/11 07:10:05;;;;;;;36.40;10.07;;;1.00;99.90;;;;;;6280926;22;20007;-77
2022/01/11 07:12:31;;;;;;;33.85;9.65;;;1.00;99.90;;;;;;6307442;22;20003;-75
2022/01/11 07:14:57;;;;;;;32.83;11.27;;;1.00;99.90;;;;;;6280163;22;20025;-75
2022/01/11 07:17:23;;;;;;;27.42;9.05;;;1.90;99.90;;;;;;6307561;22;20003;-75
2022/01/11 07:19:49;;;;;;;37.42;10.88;;;0.90;99.90;;;;;;6307722;22;20023;-75
2022/01/11 07:22:14;;;;;;;37.40;11.45;;;0.90;99.90;;;;;;6307469;22;20331;-75
2022/01/11 07:24:40;;;;;;;35.72;10.75;;;0.90;99.90;;;;;;6307854;22;20087;-75
2022/01/11 07:27:05;;;;;;;39.72;10.57;;;1.00;99.90;;;;;;6307715;22;20476;-75
2022/01/11 07:29:31;;;;;;;35.88;11.98;;;0.90;99.90;;;;;;6307653;22;20078;-75
2022/01/11 07:31:57;;;;;;;35.25;9.27;;;0.90;99.90;;;;;;6308881;22;19999;-76
2022/01/11 07:34:22;;;;;;;34.85;9.90;;;1.00;99.90;;;;;;6309368;22;20003;-76
2022/01/11 07:36:48;;;;;;;33.47;10.55;;;1.00;99.90;;;;;;6309352;22;20070;-77
2022/01/11 07:39:14;;;;;;;33.03;9.80;;;0.90;99.90;;;;;;6281738;22;20072;-76
2022/01/11 07:41:41;;;;;;;37.28;11.70;;;0.90;99.90;;;;;;6282555;22;20003;-77
2022/01/11 07:44:07;;;;;;;33.72;10.43;;;0.90;99.90;;;;;;6309354;22;19999;-76
2022/01/11 07:46:32;;;;;;;38.00;10.77;;;0.90;99.90;;;;;;6283174;22;20502;-77
2022/01/11 07:48:59;;;;;;;27.55;9.63;;;1.00;99.90;;;;;;6309254;22;20003;-77
2022/01/11 07:51:25;;;;;;;34.90;10.80;;;1.00;99.90;;;;;;6281847;22;20007;-76
2022/01/11 07:53:52;;;;;;;32.75;9.60;;;1.10;99.90;;;;;;6281725;22;20007;-76
2022/01/11 07:56:18;;;;;;;30.80;8.75;;;1.10;99.90;;;;;;6309405;22;19999;-76
2022/01/11 07:58:44;;;;;;;30.33;9.18;;;1.10;99.90;;;;;;6309010;22;20007;-76
2022/01/11 08:01:09;;;;;;;33.58;9.68;;;1.10;99.90;;;;;;6281732;22;20031;-76
2022/01/11 08:03:35;;;;;;;28.10;9.02;;;1.10;99.90;;;;;;6281809;22;20457;-77
2022/01/11 08:06:01;;;;;;;30.77;9.23;;;1.10;99.90;;;;;;6309061;22;19999;-77
2022/01/11 08:08:26;;;;;;;32.58;9.88;;;1.10;99.90;;;;;;6281636;22;20004;-77
2022/01/11 08:10:52;;;;;;;31.50;8.88;;;1.00;99.90;;;;;;6308923;22;20030;-76
2022/01/11 08:13:17;;;;;;;27.65;9.55;;;1.10;99.90;;;;;;6281551;22;20008;-76
2022/01/11 08:15:44;;;;;;;26.45;8.60;;;1.10;99.90;;;;;;6281754;22;20003;-76
2022/01/11 08:18:10;;;;;;;26.23;7.70;;;3.90;99.90;;;;;;6309026;22;19999;-76
2022/01/11 08:20:35;;;;;;;28.23;8.75;;;1.10;99.90;;;;;;6309074;22;20104;-77
2022/01/11 08:23:01;;;;;;;28.05;8.15;;;1.10;99.90;;;;;;6309384;22;20003;-77
2022/01/11 08:25:27;;;;;;;28.33;8.35;;;1.10;99.90;;;;;;6308985;22;20060;-77
2022/01/11 08:27:53;;;;;;;28.98;9.05;;;1.20;99.90;;;;;;6281528;22;20000;-77
2022/01/11 08:30:18;;;;;;;25.90;7.10;;;1.20;99.90;;;;;;6281622;22;20007;-76
2022/01/11 08:32:44;;;;;;;25.55;7.50;;;1.10;99.90;;;;;;6309341;22;19999;-76
2022/01/11 08:35:10;;;;;;;31.45;8.35;;;1.10;99.90;;;;;;6308691;22;20095;-76
2022/01/11 08:37:39;;;;;;;26.52;8.60;;;1.10;99.90;;;;;;6281213;22;20061;-77
2022/01/11 08:40:06;;;;;;;27.60;7.65;;;1.10;99.90;;;;;;6281525;22;20381;-77
2022/01/11 08:42:31;;;;;;;24.38;7.28;;;1.10;99.90;;;;;;6308328;22;19996;-76
2022/01/11 08:45:00;;;;;;;24.35;7.88;;;1.10;99.90;;;;;;6309030;22;20003;-76
2022/01/11 08:47:30;;;;;;;26.70;7.03;;;1.20;99.90;;;;;;6281503;22;20023;-77
2022/01/11 08:49:57;;;;;;;25.08;8.18;;;1.20;99.90;;;;;;6308934;22;20003;-77
2022/01/11 08:52:23;;;;;;;29.73;7.80;;;1.20;99.90;;;;;;6308629;22;20093;-77
2022/01/11 08:54:49;;;;;;;28.05;7.93;;;1.20;99.90;;;;;;6281315;22;20041;-77
2022/01/11 08:57:19;;;;;;;25.38;8.35;;;1.20;99.90;;;;;;6281285;22;20003;-77
2022/01/11 08:59:45;;;;;;;25.65;7.45;;;1.30;99.90;;;;;;6309037;22;20004;-77
2022/01/11 09:02:11;;;;;;;24.08;8.45;;;1.30;99.90;;;;;;6281425;22;20453;-77
2022/01/11 09:04:38;;;;;;;26.27;9.20;;;1.30;99.90;;;;;;6281332;22;20000;-77
2022/01/11 09:07:04;;;;;;;26.67;8.25;;;1.30;99.90;;;;;;6281193;22;19995;-77
2022/01/11 09:09:31;;;;;;;24.58;8.63;;;1.30;99.90;;;;;;6281314;22;20013;-77
2022/01/11 09:11:58;;;;;;;23.75;7.28;;;1.40;99.90;;;;;;6308795;22;20014;-77
2022/01/11 09:14:24;;;;;;;26.92;8.02;;;1.40;99.90;;;;;;6280995;22;20003;-77
2022/01/11 09:16:50;;;;;;;25.25;8.13;;;1.40;99.90;;;;;;6309254;22;20466;-77
2022/01/11 09:19:18;;;;;;;25.92;7.38;;;1.40;99.90;;;;;;6308310;22;20003;-77
2022/01/11 09:21:45;;;;;;;27.33;7.82;;;1.40;99.90;;;;;;6281638;22;20078;-77
2022/01/11 09:24:12;;;;;;;27.77;8.35;;;1.50;99.90;;;;;;6308723;22;19999;-77
2022/01/11 09:26:47;;;;;;;26.63;7.63;;;1.50;99.90;;;;;;6281325;22;20006;-77
2022/01/11 09:29:14;;;;;;;28.08;8.63;;;1.50;99.90;;;;;;6281134;22;20003;-75
2022/01/11 09:31:40;;;;;;;28.20;8.00;;;1.60;99.90;;;;;;6308550;22;20081;-76
2022/01/11 09:34:06;;;;;;;26.10;7.82;;;1.60;99.90;;;;;;6308623;22;19999;-77
2022/01/11 09:36:32;;;;;;;30.65;8.15;;;1.60;99.90;;;;;;6308625;22;20004;-77
2022/01/11 09:38:57;;;;;;;28.83;7.57;;;1.50;99.90;;;;;;6281192;22;20415;-77
2022/01/11 09:41:23;;;;;;;31.00;9.13;;;1.60;99.90;;;;;;6309022;22;20437;-77
2022/01/11 09:43:49;;;;;;;30.58;9.02;;;1.60;99.90;;;;;;6281716;22;20006;-77
2022/01/11 09:46:15;;;;;;;27.40;8.38;;;1.50;99.90;;;;;;6308885;22;20026;-77
2022/01/11 09:48:42;;;;;;;28.40;8.02;;;1.60;99.90;;;;;;6308878;22;20007;-77
2022/01/11 09:51:08;;;;;;;25.23;7.87;;;1.60;99.90;;;;;;6281268;22;19999;-77
2022/01/11 09:53:34;;;;;;;25.35;8.45;;;1.60;99.90;;;;;;6308740;22;20008;-77
2022/01/11 09:56:04;;;;;;;25.13;7.55;;;1.50;99.90;;;;;;6281486;22;20003;-77
2022/01/11 09:58:29;;;;;;;33.30;8.68;;;1.50;99.90;;;;;;6282080;22;20014;-77
2022/01/11 10:00:55;;;;;;;27.98;8.30;;;1.50;99.90;;;;;;6281838;22;20004;-77
2022/01/11 10:03:21;;;;;;;26.08;8.02;;;1.50;99.90;;;;;;6308774;22;20003;-77
2022/01/11 10:05:46;;;;;;;23.45;7.90;;;1.50;99.90;;;;;;6281023;22;19995;-77
2022/01/11 10:08:20;;;;;;;23.27;7.72;;;1.60;99.90;;;;;;6308467;22;20007;-77
2022/01/11 10:10:46;;;;;;;26.52;7.97;;;1.60;99.90;;;;;;6281307;22;20058;-77
2022/01/11 10:13:38;;;;;;;32.22;8.82;;;1.60;99.90;;;;;;6308848;22;20494;-77
2022/01/11 10:16:27;;;;;;;30.52;7.93;;;1.70;99.90;;;;;;6281270;22;20026;-77
2022/01/11 10:18:55;;;;;;;22.55;7.07;;;1.70;99.90;;;;;;6280867;22;20003;-77
2022/01/11 10:21:50;;;;;;;23.15;7.50;;;1.60;99.90;;;;;;6308529;22;20449;-77
2022/01/11 10:24:32;;;;;;;23.52;7.60;;;1.70;99.90;;;;;;6282266;22;20070;-77
2022/01/11 10:27:03;;;;;;;25.42;7.50;;;1.70;99.90;;;;;;6309419;22;20003;-77
2022/01/11 10:29:29;;;;;;;21.75;7.13;;;1.60;99.90;;;;;;6308660;22;20057;-77
2022/01/11 10:31:56;;;;;;;24.80;7.80;;;1.70;99.90;;;;;;6308804;22;19999;-77
2022/01/11 10:34:34;;;;;;;25.58;7.82;;;1.70;99.90;;;;;;6280882;22;20008;-77
2022/01/11 10:37:02;;;;;;;26.25;8.77;;;1.80;99.90;;;;;;6308849;22;20003;-77
2022/01/11 10:39:33;;;;;;;25.58;7.45;;;1.80;99.90;;;;;;6281026;22;20052;-76
2022/01/11 10:42:00;;;;;;;25.08;6.60;;;1.80;99.90;;;;;;6281010;22;19999;-77
2022/01/11 10:44:51;;;;;;;29.30;7.97;;;1.90;99.90;;;;;;6308469;22;20074;-77
2022/01/11 10:47:23;;;;;;;22.23;8.02;;;2.00;99.90;;;;;;6280869;22;20025;-78
2022/01/11 10:49:52;;;;;;;22.70;7.70;;;2.10;99.90;;;;;;6308080;22;20003;-77
2022/01/11 10:52:23;;;;;;;27.75;8.68;;;2.10;99.90;;;;;;6308554;22;20446;-77
2022/01/11 10:54:49;;;;;;;21.60;7.93;;;2.20;99.90;;;;;;6308813;22;20003;-78
2022/01/11 10:57:27;;;;;;;25.58;8.00;;;2.20;99.90;;;;;;6308894;22;20053;-78
2022/01/11 11:00:17;;;;;;;25.52;7.35;;;2.30;99.90;;;;;;6308265;22;20003;-77
2022/01/11 11:02:45;;;;;;;22.95;6.65;;;2.30;99.90;;;;;;6281252;22;20379;-78
2022/01/11 11:05:17;;;;;;;13.82;4.15;;;2.40;99.90;;;;;;6281129;22;20402;-77
2022/01/11 11:07:52;;;;;;;19.88;6.70;;;2.50;99.90;;;;;;6310587;22;19995;-77
2022/01/11 11:10:29;;;;;;;21.88;5.95;;;2.50;99.90;;;;;;6283489;22;20027;-77
2022/01/11 11:12:55;;;;;;;20.33;5.47;;;2.60;99.90;;;;;;6282909;22;20004;-78
2022/01/11 11:15:31;;;;;;;19.38;6.07;;;2.60;99.90;;;;;;6283110;22;20346;-78
2022/01/11 11:17:57;;;;;;;20.67;6.47;;;2.60;99.90;;;;;;6310074;22;20007;-78
2022/01/11 11:20:23;;;;;;;15.60;4.72;;;2.70;99.90;;;;;;6309578;22;20030;-77
2022/01/11 11:22:49;;;;;;;18.63;5.25;;;2.70;99.90;;;;;;6309654;22;20026;-77
2022/01/11 11:25:15;;;;;;;17.77;6.22;;;2.70;99.90;;;;;;6282271;22;20027;-77
2022/01/11 11:27:40;;;;;;;16.70;5.70;;;2.80;99.90;;;;;;6309663;22;20373;-78
2022/01/11 11:30:06;;;;;;;17.73;5.93;;;2.80;99.90;;;;;;6309470;22;20097;-77
2022/01/11 11:32:35;;;;;;;16.67;5.18;;;2.90;99.90;;;;;;6282293;22;20456;-77
2022/01/11 11:35:01;;;;;;;18.55;3.50;;;2.90;99.90;;;;;;6282259;22;20405;-78
2022/01/11 11:37:34;;;;;;;15.45;5.03;;;2.90;99.90;;;;;;6283046;22;20031;-78
2022/01/11 11:40:05;;;;;;;15.70;4.50;;;3.00;99.90;;;;;;6282574;22;20347;-77
2022/01/11 11:42:31;;;;;;;15.18;4.65;;;3.00;99.90;;;;;;6282958;22;20010;-78
2022/01/11 11:44:58;;;;;;;13.23;4.50;;;3.00;99.90;;;;;;6283101;22;20003;-77
2022/01/11 11:47:30;;;;;;;17.42;4.32;;;3.10;99.90;;;;;;6309829;22;20398;-78
2022/01/11 11:50:00;;;;;;;16.75;5.05;;;3.10;99.90;;;;;;6309664;22;19996;-78
2022/01/11 11:52:34;;;;;;;17.42;4.57;;;3.30;99.90;;;;;;6282420;22;20030;-78
2022/01/11 11:55:19;;;;;;;14.60;5.07;;;3.40;99.90;;;;;;6282522;22;20003;-78
2022/01/11 11:57:45;;;;;;;19.13;4.63;;;3.50;99.90;;;;;;6282905;22;20057;-78
2022/01/11 12:00:21;;;;;;;15.40;5.60;;;3.70;99.90;;;;;;6310031;22;20014;-77
2022/01/11 12:02:48;;;;;;;15.18;4.50;;;3.90;99.90;;;;;;6310073;22;19996;-78
2022/01/11 12:05:34;;;;;;;14.30;4.70;;;4.20;99.90;;;;;;6309266;22;20080;-78
2022/01/11 12:08:31;;;;;;;17.73;4.68;;;4.40;99.90;;;;;;6309950;22;20003;-78
2022/01/11 12:11:02;;;;;;;11.48;4.13;;;4.70;99.90;;;;;;6281691;22;20018;-78
2022/01/11 12:13:40;;;;;;;15.43;3.92;;;5.00;99.90;;;;;;6282629;22;20027;-78
2022/01/11 12:16:24;;;;;;;12.80;4.15;;;5.30;99.90;;;;;;6281974;22;20006;-78
2022/01/11 12:19:07;;;;;;;12.70;4.03;;;5.50;99.90;;;;;;6308610;22;20384;-78
2022/01/11 12:22:00;;;;;;;15.02;3.92;;;5.70;99.90;;;;;;6281628;22;20006;-77
2022/01/11 12:24:37;;;;;;;14.90;4.25;;;6.00;99.90;;;;;;6280845;22;20003;-77
2022/01/11 12:27:06;;;;;;;12.02;3.78;;;6.20;99.90;;;;;;6281734;22;20049;-77
2022/01/11 12:29:31;;;;;;;12.80;3.50;;;6.40;99.90;;;;;;6309362;22;20007;-77
2022/01/11 12:32:06;;;;;;;9.93;3.40;;;6.60;99.90;;;;;;6309265;22;20440;-78
2022/01/11 12:34:50;;;;;;;15.02;3.90;;;6.60;99.90;;;;;;6281674;22;20061;-78
2022/01/11 12:37:38;;;;;;;9.85;3.00;;;6.60;99.90;;;;;;6281894;22;20312;-78
2022/01/11 12:40:22;;;;;;;7.55;3.25;;;6.60;99.90;;;;;;6308964;22;20007;-78
2022/01/11 12:43:06;;;;;;;12.20;3.65;;;6.50;99.90;;;;;;6281515;22;20007;-78
2022/01/11 12:46:00;;;;;;;11.50;2.55;;;6.40;99.90;;;;;;6281519;22;20472;-78
2022/01/11 12:48:44;;;;;;;10.73;3.28;;;6.40;99.90;;;;;;6281275;22;20461;-77
2022/01/11 12:51:11;;;;;;;12.70;3.20;;;6.30;99.90;;;;;;6308772;22;20081;-77
2022/01/11 12:53:37;;;;;;;12.43;3.65;;;6.30;99.90;;;;;;6309033;22;20014;-77
2022/01/11 12:56:03;;;;;;;13.88;3.63;;;6.30;99.90;;;;;;6281354;22;20011;-78